Time;durP1;ratioP1;P1;durP2;ratioP2;P2;SDS_P1;SDS_P2;PMS_P1;PMS_P2;Temp;Humidity;BMP_temperature;BMP_pressure;BME280_temperature;BME280_humidity;BME280_pressure;Samples;Min_cycle;Max_cycle;Signal;HPM_P1;HPM_P2
2023/04/27 00:01:58;;;;;;;7.35;2.58;;;;;;;5.70;60.32;101536.69;5010957;28;20373;-70
2023/04/27 00:04:24;;;;;;;7.28;2.17;;;;;;;5.68;60.52;101538.44;5017589;28;20060;-71
2023/04/27 00:06:50;;;;;;;4.32;2.20;;;;;;;5.68;60.81;101538.44;5034673;28;20022;-70
2023/04/27 00:09:15;;;;;;;7.43;2.40;;;;;;;5.66;60.89;101540.22;5017485;28;20076;-70
2023/04/27 00:11:41;;;;;;;6.30;2.25;;;;;;;5.65;60.66;101537.63;5022550;28;20046;-69
2023/04/27 00:14:06;;;;;;;3.40;2.20;;;;;;;5.68;60.78;101538.44;5002481;28;20061;-70
2023/04/27 00:16:31;;;;;;;7.35;2.13;;;;;;;5.63;60.54;101535.00;4998320;28;20536;-70
2023/04/27 00:18:57;;;;;;;9.60;2.53;;;;;;;5.63;60.43;101534.16;5015025;28;20052;-70
2023/04/27 00:21:22;;;;;;;5.07;2.47;;;;;;;5.61;60.72;101536.78;5029055;28;20122;-70
2023/04/27 00:23:48;;;;;;;3.78;2.28;;;;;;;5.60;60.95;101535.03;5042282;28;20405;-70
2023/04/27 00:26:13;;;;;;;5.63;2.53;;;;;;;5.67;61.03;101535.84;5026041;28;20029;-70
2023/04/27 00:28:38;;;;;;;3.72;2.33;;;;;;;5.69;60.77;101534.94;5019774;28;20057;-69
2023/04/27 00:31:04;;;;;;;8.75;2.92;;;;;;;5.66;60.69;101534.97;5017640;28;20029;-69
2023/04/27 00:33:30;;;;;;;5.13;2.35;;;;;;;5.61;61.10;101543.81;5030652;28;20038;-69
2023/04/27 00:36:00;;;;;;;6.57;2.47;;;;;;;5.57;61.67;101542.09;5013707;28;20083;-70
2023/04/27 00:38:26;;;;;;;12.63;2.58;;;;;;;5.57;61.44;101535.09;5030119;28;20026;-70
2023/04/27 00:40:51;;;;;;;7.10;2.78;;;;;;;5.57;61.26;101542.94;5013823;28;20076;-70
2023/04/27 00:43:17;;;;;;;5.55;2.30;;;;;;;5.53;61.89;101538.66;5030179;28;20093;-70
2023/04/27 00:45:42;;;;;;;8.52;2.30;;;;;;;5.53;62.19;101551.75;5030100;28;20030;-70
2023/04/27 00:48:10;;;;;;;4.57;2.20;;;;;;;5.55;61.70;101547.34;5032439;28;20037;-70
2023/04/27 00:50:37;;;;;;;4.93;2.22;;;;;;;5.58;62.45;101547.31;5013512;28;20108;-70
2023/04/27 00:53:04;;;;;;;9.77;2.35;;;;;;;5.56;61.98;101546.47;5013498;28;20044;-70
2023/04/27 00:55:30;;;;;;;5.38;2.00;;;;;;;5.60;61.73;101544.69;5029717;28;20025;-70
2023/04/27 00:57:55;;;;;;;25.08;12.85;;;;;;;5.55;62.53;101547.34;5042389;28;20040;-69
2023/04/27 01:00:21;;;;;;;45.22;17.75;;;;;;;5.53;62.62;101549.13;5033169;28;20112;-70
2023/04/27 01:02:47;;;;;;;10.73;4.50;;;;;;;5.59;62.27;101549.06;5016468;28;20468;-70
2023/04/27 01:05:13;;;;;;;12.77;2.83;;;;;;;5.53;62.73;101549.13;5032765;28;20080;-70
2023/04/27 01:07:39;;;;;;;12.43;3.45;;;;;;;5.52;62.84;101557.88;5027538;28;20041;-70
2023/04/27 01:10:06;;;;;;;5.10;2.25;;;;;;;5.47;63.38;101549.19;5015908;28;20036;-70
2023/04/27 01:12:31;;;;;;;14.85;3.85;;;;;;;5.45;63.55;101550.97;5013051;28;20124;-70
2023/04/27 01:14:56;;;;;;;8.95;2.28;;;;;;;5.45;63.82;101556.22;5012501;28;20109;-70
2023/04/27 01:17:22;;;;;;;10.05;2.50;;;;;;;5.41;63.44;101554.50;5031524;28;20072;-70
2023/04/27 01:19:48;;;;;;;6.38;2.33;;;;;;;5.40;63.50;101560.66;5032841;28;20438;-70
2023/04/27 01:22:14;;;;;;;9.57;2.38;;;;;;;5.40;63.26;101552.78;5033981;28;20531;-70
2023/04/27 01:24:40;;;;;;;11.18;4.10;;;;;;;5.38;63.23;101557.16;5029605;28;20034;-70
2023/04/27 01:27:05;;;;;;;7.28;2.50;;;;;;;5.38;63.44;101555.44;5032698;28;20033;-70
2023/04/27 01:29:31;;;;;;;19.40;3.30;;;;;;;5.38;63.50;101565.91;5032901;28;20442;-70
2023/04/27 01:31:56;;;;;;;10.77;3.17;;;;;;;5.38;64.09;101567.66;5018044;28;20458;-70
2023/04/27 01:34:22;;;;;;;9.63;2.55;;;;;;;5.31;63.93;101559.88;5011302;28;20029;-70
2023/04/27 01:36:47;;;;;;;6.07;2.38;;;;;;;5.31;63.99;101567.75;5013105;28;20042;-70
2023/04/27 01:39:12;;;;;;;5.60;2.10;;;;;;;5.30;64.02;101567.75;5020713;28;20057;-70
2023/04/27 01:41:38;;;;;;;5.80;2.95;;;;;;;5.32;64.35;101572.09;5000577;28;20045;-70
2023/04/27 01:44:03;;;;;;;11.88;2.78;;;;;;;5.29;63.91;101572.09;5014325;28;20017;-70
2023/04/27 01:46:29;;;;;;;6.30;2.85;;;;;;;5.36;63.65;101572.06;5014566;28;20033;-70
2023/04/27 01:48:54;;;;;;;4.88;2.17;;;;;;;5.39;63.52;101583.38;5025580;28;20061;-70
2023/04/27 01:51:20;;;;;;;6.88;2.70;;;;;;;5.36;63.17;101578.16;5032556;28;20365;-70
2023/04/27 01:53:45;;;;;;;9.52;3.13;;;;;;;5.37;63.78;101585.16;5034415;28;20113;-70
2023/04/27 01:56:11;;;;;;;9.07;2.47;;;;;;;5.36;63.41;101582.53;5033025;28;20044;-71
2023/04/27 01:58:36;;;;;;;7.78;2.28;;;;;;;5.25;64.21;101580.91;5032901;28;20087;-70
2023/04/27 02:01:02;;;;;;;7.47;2.65;;;;;;;5.25;64.18;101586.16;5032232;28;20458;-68
2023/04/27 02:03:27;;;;;;;7.57;2.38;;;;;;;5.26;64.03;101585.28;5033166;28;20406;-71
2023/04/27 02:05:52;;;;;;;6.72;2.33;;;;;;;5.21;64.38;101587.06;5033142;28;20094;-71
2023/04/27 02:08:18;;;;;;;4.28;2.35;;;;;;;5.20;64.61;101582.72;5033839;28;20033;-71
2023/04/27 02:10:43;;;;;;;8.63;3.60;;;;;;;5.21;64.20;101589.66;5014592;28;20060;-70
2023/04/27 02:13:09;;;;;;;6.22;2.25;;;;;;;5.24;64.13;101592.25;5013812;28;20093;-70
2023/04/27 02:15:34;;;;;;;5.60;2.25;;;;;;;5.25;64.35;101594.00;5017207;28;20021;-70
2023/04/27 02:18:00;;;;;;;6.43;2.72;;;;;;;5.20;64.63;101595.81;5028383;28;20133;-70
2023/04/27 02:20:25;;;;;;;5.13;2.55;;;;;;;5.13;64.18;101596.75;5013505;28;20028;-70
2023/04/27 02:22:52;;;;;;;11.15;2.10;;;;;;;5.21;63.65;101599.28;5028846;28;20022;-71
2023/04/27 02:25:17;;;;;;;10.32;2.10;;;;;;;5.16;64.11;101604.56;5028348;28;20022;-71
2023/04/27 02:27:43;;;;;;;10.43;2.80;;;;;;;5.09;64.56;101601.16;5028111;28;20040;-68
2023/04/27 02:30:09;;;;;;;9.45;2.65;;;;;;;5.10;63.29;101599.38;5016588;28;20030;-70
2023/04/27 02:32:35;;;;;;;5.38;1.90;;;;;;;5.05;64.34;101609.94;5005976;28;20045;-71
2023/04/27 02:35:01;;;;;;;4.55;1.92;;;;;;;5.02;63.91;101601.22;5012088;28;20137;-70
2023/04/27 02:37:26;;;;;;;5.38;1.98;;;;;;;5.04;63.54;101602.94;5025050;28;20420;-70
2023/04/27 02:39:51;;;;;;;10.35;2.58;;;;;;;5.00;63.79;101605.59;5024847;28;20109;-70
2023/04/27 02:42:17;;;;;;;5.25;2.40;;;;;;;4.97;64.02;101602.13;5036807;28;20030;-70
2023/04/27 02:44:42;;;;;;;7.72;2.67;;;;;;;4.98;64.22;101603.00;5012302;28;20034;-70
2023/04/27 02:47:08;;;;;;;8.05;2.65;;;;;;;4.96;63.74;101604.78;5027139;28;20029;-70
2023/04/27 02:49:34;;;;;;;4.82;2.65;;;;;;;5.01;63.78;101602.13;5021513;28;20116;-70
2023/04/27 02:51:59;;;;;;;8.13;2.42;;;;;;;4.97;64.32;101610.00;5037252;28;20112;-70
2023/04/27 02:54:25;;;;;;;4.82;2.13;;;;;;;4.93;64.37;101610.88;5014529;28;20463;-70
2023/04/27 02:56:50;;;;;;;35.30;2.92;;;;;;;4.92;64.83;101609.16;5035639;28;20075;-70
2023/04/27 02:59:16;;;;;;;8.30;2.65;;;;;;;4.92;63.87;101606.56;5018872;28;20183;-70
2023/04/27 03:01:41;;;;;;;6.53;2.30;;;;;;;4.91;64.63;101612.66;5035624;28;20040;-70
2023/04/27 03:04:06;;;;;;;10.18;2.90;;;;;;;4.95;63.75;101614.38;5023528;28;20028;-70
2023/04/27 03:06:32;;;;;;;9.90;3.13;;;;;;;4.92;64.49;101616.13;5016435;28;20037;-70
2023/04/27 03:08:57;;;;;;;4.88;2.33;;;;;;;4.93;64.69;101615.28;5016721;28;20491;-70
2023/04/27 03:11:23;;;;;;;8.05;2.60;;;;;;;4.99;64.43;101614.38;5016512;28;20025;-70
2023/04/27 03:13:48;;;;;;;6.95;2.60;;;;;;;4.95;64.56;101614.38;5017996;28;20037;-70
2023/04/27 03:16:13;;;;;;;5.07;2.60;;;;;;;4.97;64.36;101622.25;5015952;28;20081;-70
2023/04/27 03:18:39;;;;;;;11.55;3.67;;;;;;;4.95;64.44;101623.97;5032077;28;20030;-69
2023/04/27 03:21:09;;;;;;;8.98;2.58;;;;;;;4.92;64.36;101624.91;5017962;28;20432;-70
2023/04/27 03:23:35;;;;;;;12.90;4.20;;;;;;;4.87;64.71;101621.44;5035162;28;20057;-70
2023/04/27 03:26:08;;;;;;;8.38;2.88;;;;;;;4.90;64.89;101626.63;5018038;28;20057;-70
2023/04/27 03:28:33;;;;;;;8.07;2.58;;;;;;;4.91;65.30;101633.63;5035640;28;20093;-70
2023/04/27 03:30:59;;;;;;;9.95;3.15;;;;;;;4.97;64.82;101628.34;5033805;28;20068;-70
2023/04/27 03:33:25;;;;;;;7.93;3.22;;;;;;;4.95;64.82;101631.84;5034755;28;20072;-70
2023/04/27 03:35:57;;;;;;;9.43;2.63;;;;;;;4.88;64.57;101633.66;5034744;28;20036;-71
2023/04/27 03:38:24;;;;;;;11.30;3.72;;;;;;;4.87;64.45;101637.16;5028666;28;20083;-70
2023/04/27 03:40:49;;;;;;;9.82;2.70;;;;;;;4.85;64.98;101648.53;5008375;28;20045;-70
2023/04/27 03:43:15;;;;;;;7.68;2.70;;;;;;;4.83;64.76;101645.91;5038582;28;20422;-70
2023/04/27 03:45:40;;;;;;;7.80;3.13;;;;;;;4.81;64.85;101645.06;5035134;28;20032;-70
2023/04/27 03:48:06;;;;;;;8.23;3.00;;;;;;;4.80;64.92;101643.31;5032567;28;20029;-71
2023/04/27 03:50:31;;;;;;;7.88;3.67;;;;;;;4.79;65.36;101649.44;5043006;28;20055;-71
2023/04/27 03:52:57;;;;;;;5.28;2.83;;;;;;;4.78;65.66;101647.69;5034874;28;20516;-68
2023/04/27 03:55:22;;;;;;;9.63;2.63;;;;;;;4.81;65.05;101647.69;5035253;28;20036;-68
2023/04/27 03:57:47;;;;;;;8.93;2.80;;;;;;;4.97;64.79;101654.53;5030403;28;20453;-71
2023/04/27 04:00:14;;;;;;;7.88;2.67;;;;;;;4.89;64.89;101652.88;5033666;28;20029;-71
2023/04/27 04:02:40;;;;;;;14.98;2.97;;;;;;;4.85;65.05;101659.00;5034347;28;20041;-69
2023/04/27 04:05:06;;;;;;;7.00;3.00;;;;;;;4.89;65.42;101661.59;5033727;28;20404;-69
2023/04/27 04:07:31;;;;;;;7.32;4.10;;;;;;;4.86;65.99;101650.28;5033600;28;20033;-69
2023/04/27 04:09:57;;;;;;;9.30;3.15;;;;;;;4.82;65.57;101659.88;5017694;28;20033;-70
2023/04/27 04:12:22;;;;;;;7.63;2.65;;;;;;;4.86;66.23;101661.63;5035504;28;20098;-70
2023/04/27 04:14:47;;;;;;;13.73;3.60;;;;;;;4.75;66.35;101660.81;5034082;28;20064;-70
2023/04/27 04:17:13;;;;;;;12.15;2.65;;;;;;;4.73;66.37;101659.97;5033352;28;20057;-70
2023/04/27 04:19:39;;;;;;;11.43;3.67;;;;;;;4.84;66.40;101668.63;5033753;28;20025;-70
2023/04/27 04:22:04;;;;;;;9.18;2.35;;;;;;;4.80;66.70;101666.88;5033896;28;20561;-70
2023/04/27 04:24:30;;;;;;;10.63;2.72;;;;;;;4.81;66.57;101668.63;5029848;28;20034;-70
2023/04/27 04:26:55;;;;;;;8.27;2.88;;;;;;;4.84;66.07;101668.63;5014016;28;20034;-70
2023/04/27 04:29:21;;;;;;;22.70;3.97;;;;;;;4.82;66.46;101670.34;5013910;28;20121;-70
2023/04/27 04:31:46;;;;;;;14.07;3.55;;;;;;;4.88;66.37;101672.94;5006202;28;20025;-70
2023/04/27 04:34:13;;;;;;;11.68;3.22;;;;;;;4.84;66.04;101668.63;5027567;28;20501;-70
2023/04/27 04:36:39;;;;;;;9.38;3.30;;;;;;;4.90;65.99;101673.78;5013888;28;20505;-70
2023/04/27 04:39:05;;;;;;;9.20;2.55;;;;;;;4.87;65.59;101683.44;5014017;28;20033;-70
2023/04/27 04:41:31;;;;;;;16.80;3.50;;;;;;;4.93;65.30;101681.63;5014195;28;20112;-70
2023/04/27 04:43:56;;;;;;;9.80;3.63;;;;;;;4.99;65.29;101688.59;5029095;28;20121;-70
2023/04/27 04:46:23;;;;;;;11.00;3.05;;;;;;;5.01;65.52;101685.97;5034780;28;20072;-70
2023/04/27 04:48:49;;;;;;;7.25;3.03;;;;;;;5.04;64.84;101686.81;5035693;28;20401;-70
2023/04/27 04:51:14;;;;;;;8.68;2.80;;;;;;;5.06;64.82;101684.16;5034522;28;20129;-70
2023/04/27 04:53:39;;;;;;;8.93;3.00;;;;;;;5.09;65.07;101684.16;5025360;28;20355;-70
2023/04/27 04:56:12;;;;;;;14.55;3.75;;;;;;;5.09;64.95;101689.41;5030445;28;20033;-69
2023/04/27 04:58:38;;;;;;;4.82;2.65;;;;;;;5.08;64.23;101688.50;5016479;28;20033;-69
2023/04/27 05:01:04;;;;;;;9.80;3.75;;;;;;;4.99;63.62;101698.22;5029799;28;20025;-70
2023/04/27 05:03:29;;;;;;;7.18;3.03;;;;;;;5.02;64.56;101692.94;5014731;28;20030;-70
2023/04/27 05:05:55;;;;;;;8.55;2.95;;;;;;;5.10;63.36;101696.34;5030915;28;20032;-70
2023/04/27 05:08:20;;;;;;;9.50;3.08;;;;;;;5.10;63.46;101697.25;5033785;28;20060;-69
2023/04/27 05:10:53;;;;;;;8.90;3.50;;;;;;;5.17;63.47;101698.06;5019088;28;20083;-69
2023/04/27 05:13:19;;;;;;;12.05;3.22;;;;;;;5.18;63.78;101704.16;5030008;28;20434;-69
2023/04/27 05:15:44;;;;;;;11.45;3.47;;;;;;;5.29;63.16;101697.94;5012725;28;20080;-70
2023/04/27 05:18:09;;;;;;;18.70;4.38;;;;;;;5.37;63.58;101700.50;5016083;28;20074;-71
2023/04/27 05:20:35;;;;;;;9.38;2.70;;;;;;;5.21;62.44;101699.75;5033192;28;20061;-70
2023/04/27 05:23:01;;;;;;;14.30;3.20;;;;;;;5.22;62.29;101700.66;4998078;28;20034;-70
2023/04/27 05:25:30;;;;;;;14.43;2.90;;;;;;;5.23;62.60;101697.13;5012572;28;20041;-70
2023/04/27 05:27:55;;;;;;;5.13;2.42;;;;;;;5.18;62.29;101698.94;5018919;28;20104;-69
2023/04/27 05:30:21;;;;;;;10.43;3.08;;;;;;;5.30;62.01;101698.84;5035118;28;20030;-70
2023/04/27 05:32:46;;;;;;;9.00;2.47;;;;;;;5.35;62.41;101706.66;5021996;28;20473;-71
2023/04/27 05:35:11;;;;;;;9.48;2.88;;;;;;;5.26;62.94;101695.38;5032870;28;20033;-70
2023/04/27 05:37:37;;;;;;;14.85;3.08;;;;;;;5.21;62.28;101705.00;5014466;28;20341;-71
2023/04/27 05:40:04;;;;;;;6.32;2.65;;;;;;;5.22;62.03;101701.50;5033133;28;20543;-70
2023/04/27 05:42:30;;;;;;;6.80;2.90;;;;;;;5.29;62.09;101702.31;5031877;28;20056;-70
2023/04/27 05:44:55;;;;;;;12.50;3.20;;;;;;;5.26;62.33;101702.34;5031624;28;20697;-70
2023/04/27 05:47:21;;;;;;;8.50;2.55;;;;;;;5.26;62.52;101698.00;5032079;28;20397;-70
2023/04/27 05:49:51;;;;;;;10.18;2.88;;;;;;;5.27;62.32;101696.22;5032927;28;20119;-69
2023/04/27 05:52:16;;;;;;;9.13;2.58;;;;;;;5.27;61.44;101704.09;5032775;28;20037;-68
2023/04/27 05:54:48;;;;;;;11.10;3.33;;;;;;;5.32;62.38;101716.28;5030814;28;20032;-70
2023/04/27 05:57:14;;;;;;;;;;;;;;;5.51;61.44;101713.50;5038409;28;20365;-68
2023/04/27 05:59:39;;;;;;;10.63;3.67;;;;;;;5.64;61.09;101714.25;5035333;28;19909;-68
2023/04/27 06:02:05;;;;;;;10.75;2.85;;;;;;;5.89;60.81;101720.13;5033513;28;20055;-71
2023/04/27 06:04:32;;;;;;;15.48;3.50;;;;;;;5.94;60.44;101723.56;5030715;28;20497;-71
2023/04/27 06:06:57;;;;;;;6.15;2.53;;;;;;;5.96;58.99;101719.19;5032166;28;20106;-70
2023/04/27 06:09:23;;;;;;;6.22;2.80;;;;;;;6.18;58.65;101722.44;5025333;28;20447;-70
2023/04/27 06:11:48;;;;;;;6.53;2.67;;;;;;;6.43;58.83;101728.25;5032028;28;20087;-72
2023/04/27 06:14:15;;;;;;;5.43;2.47;;;;;;;6.52;58.19;101723.78;5025570;28;20041;-70
2023/04/27 06:16:40;;;;;;;4.18;2.17;;;;;;;6.54;57.04;101724.63;5032377;28;20072;-70
2023/04/27 06:19:06;;;;;;;5.82;2.53;;;;;;;6.34;58.00;101730.13;5033655;28;20034;-70
2023/04/27 06:21:32;;;;;;;12.38;2.47;;;;;;;6.47;58.27;101726.44;5027016;28;20458;-70
2023/04/27 06:23:58;;;;;;;10.77;2.60;;;;;;;6.57;57.79;101746.47;5014471;28;20069;-70
2023/04/27 06:26:23;;;;;;;13.60;3.55;;;;;;;6.47;57.83;101733.47;5028861;28;20053;-70
2023/04/27 06:28:48;;;;;;;7.45;3.25;;;;;;;6.41;57.91;101743.19;5016029;28;20030;-70
2023/04/27 06:31:14;;;;;;;5.82;2.10;;;;;;;6.38;57.53;101739.72;5030946;28;20100;-71
2023/04/27 06:33:40;;;;;;;13.18;3.63;;;;;;;6.34;57.80;101749.41;5032574;28;20022;-70
2023/04/27 06:36:05;;;;;;;10.70;3.40;;;;;;;6.48;57.56;101743.97;5031879;28;20030;-70
2023/04/27 06:38:31;;;;;;;4.35;2.20;;;;;;;6.45;57.63;101743.13;5032206;28;20040;-70
2023/04/27 06:40:56;;;;;;;9.77;2.78;;;;;;;6.51;57.71;101740.44;5028633;28;20041;-69
2023/04/27 06:43:22;;;;;;;8.02;2.63;;;;;;;6.40;57.82;101744.06;5032547;28;20029;-70
2023/04/27 06:45:47;;;;;;;14.20;3.15;;;;;;;6.35;58.21;101743.25;5031595;28;20037;-69
2023/04/27 06:48:12;;;;;;;17.05;3.10;;;;;;;6.34;58.43;101744.16;5031656;28;20033;-70
2023/04/27 06:50:38;;;;;;;5.90;2.50;;;;;;;6.23;58.40;101740.78;5029999;28;20048;-70
2023/04/27 06:53:03;;;;;;;5.22;3.00;;;;;;;6.14;59.02;101736.47;5031290;28;20047;-70
2023/04/27 06:55:29;;;;;;;10.05;3.05;;;;;;;6.19;59.19;101744.31;5013844;28;20018;-70
2023/04/27 06:57:54;;;;;;;11.40;3.47;;;;;;;6.25;58.71;101745.09;5029583;28;20365;-70
2023/04/27 07:00:20;;;;;;;5.20;2.55;;;;;;;5.97;58.30;101739.31;5014328;28;20021;-70
2023/04/27 07:02:45;;;;;;;10.43;3.00;;;;;;;6.14;58.58;101754.00;5032727;28;20029;-70
2023/04/27 07:05:11;;;;;;;10.13;2.83;;;;;;;6.27;56.92;101752.13;5031138;28;20029;-70
2023/04/27 07:07:36;;;;;;;11.20;3.28;;;;;;;6.42;56.94;101751.91;5030939;28;20320;-70
2023/04/27 07:10:02;;;;;;;14.20;2.47;;;;;;;6.85;56.00;101753.09;5031356;28;20033;-70
2023/04/27 07:12:28;;;;;;;7.43;3.13;;;;;;;7.04;55.30;101741.44;5031583;28;20080;-69
2023/04/27 07:14:53;;;;;;;11.02;2.53;;;;;;;7.27;54.74;101748.09;5031108;28;20053;-70
2023/04/27 07:17:19;;;;;;;11.20;3.50;;;;;;;7.26;53.94;101754.25;5040324;28;20100;-69
2023/04/27 07:19:44;;;;;;;5.90;2.63;;;;;;;7.11;52.62;101764.13;5039773;28;20025;-69
2023/04/27 07:22:10;;;;;;;5.93;2.08;;;;;;;7.22;52.58;101749.94;5031225;28;20057;-69
2023/04/27 07:24:35;;;;;;;7.80;2.20;;;;;;;6.93;53.29;101759.13;5030248;28;20052;-69
2023/04/27 07:27:02;;;;;;;10.13;3.42;;;;;;;6.65;53.84;101748.13;5029526;28;20033;-70
2023/04/27 07:29:29;;;;;;;7.72;2.90;;;;;;;6.57;54.44;101750.84;5032167;28;20095;-71
2023/04/27 07:31:54;;;;;;;11.68;3.05;;;;;;;6.61;55.41;101752.56;5011297;28;20030;-70
2023/04/27 07:34:20;;;;;;;14.57;3.03;;;;;;;6.51;55.81;101753.56;5020811;28;20465;-70
2023/04/27 07:36:45;;;;;;;5.93;2.40;;;;;;;6.74;55.39;101748.88;5036026;28;20033;-70
2023/04/27 07:39:11;;;;;;;15.20;3.05;;;;;;;7.00;55.03;101755.53;5034475;28;20071;-70
2023/04/27 07:41:36;;;;;;;8.13;3.33;;;;;;;7.13;53.85;101746.56;5034354;28;20164;-71
2023/04/27 07:44:02;;;;;;;8.40;2.58;;;;;;;7.33;52.40;101753.25;5032898;28;20432;-70
2023/04/27 07:46:29;;;;;;;12.43;3.10;;;;;;;7.78;52.41;101763.91;5032888;28;20043;-70
2023/04/27 07:48:54;;;;;;;9.95;2.63;;;;;;;7.95;52.19;101762.72;5033615;28;20025;-71
2023/04/27 07:51:20;;;;;;;7.03;2.42;;;;;;;7.79;51.53;101759.50;5033963;28;20033;-71
2023/04/27 07:53:45;;;;;;;8.75;2.83;;;;;;;7.47;52.28;101767.06;5017320;28;20399;-70
2023/04/27 07:56:11;;;;;;;11.68;3.97;;;;;;;7.43;50.86;101775.88;5006365;28;20040;-69
2023/04/27 07:58:37;;;;;;;9.80;3.20;;;;;;;7.87;50.31;101776.03;5015133;28;20018;-70
2023/04/27 08:01:02;;;;;;;6.28;2.47;;;;;;;8.02;49.29;101769.59;5013617;28;20040;-70
2023/04/27 08:03:28;;;;;;;6.18;2.88;;;;;;;8.09;50.53;101760.69;5015051;28;20083;-70
2023/04/27 08:05:53;;;;;;;9.80;3.75;;;;;;;7.77;50.91;101764.78;5031767;28;20041;-70
2023/04/27 08:08:18;;;;;;;8.60;3.20;;;;;;;8.41;50.43;101767.09;5034550;28;20115;-70
2023/04/27 08:10:44;;;;;;;7.43;3.30;;;;;;;8.42;50.17;101768.84;5025501;28;20033;-70
2023/04/27 08:13:10;;;;;;;10.40;3.10;;;;;;;8.52;50.96;101772.19;4998345;28;20570;-70
2023/04/27 08:15:36;;;;;;;8.05;2.60;;;;;;;8.16;50.70;101770.22;5015149;28;20442;-70
2023/04/27 08:18:01;;;;;;;9.63;3.40;;;;;;;7.63;51.87;101769.41;5015788;28;20347;-70
2023/04/27 08:20:26;;;;;;;13.23;3.33;;;;;;;7.66;52.02;101772.00;5030150;28;20025;-70
2023/04/27 08:22:52;;;;;;;15.10;3.53;;;;;;;7.60;53.07;101780.00;5035079;28;20018;-72
2023/04/27 08:25:18;;;;;;;8.57;3.05;;;;;;;7.60;52.98;101782.63;5034909;28;20040;-67
2023/04/27 08:27:43;;;;;;;10.23;3.50;;;;;;;7.33;53.25;101780.41;5033092;28;20029;-68
2023/04/27 08:30:09;;;;;;;15.77;3.63;;;;;;;7.20;53.53;101778.88;5034564;28;20037;-67
2023/04/27 08:32:35;;;;;;;8.35;2.60;;;;;;;7.23;54.49;101772.72;5019346;28;20113;-67
2023/04/27 08:35:00;;;;;;;9.18;3.15;;;;;;;7.23;55.52;101783.25;5032126;28;20156;-67
2023/04/27 08:37:26;;;;;;;7.18;2.92;;;;;;;7.17;55.74;101785.03;5033754;28;20430;-67
2023/04/27 08:39:51;;;;;;;7.03;3.17;;;;;;;7.22;55.22;101792.00;5033910;28;20033;-67
2023/04/27 08:42:16;;;;;;;10.25;4.60;;;;;;;7.19;53.84;101782.38;5034596;28;20648;-67
2023/04/27 08:44:43;;;;;;;8.75;3.47;;;;;;;7.33;52.95;101787.44;5034062;28;20064;-68
2023/04/27 08:47:09;;;;;;;9.63;3.10;;;;;;;7.46;53.07;101775.84;5015506;28;20057;-68
2023/04/27 08:49:37;;;;;;;9.05;3.15;;;;;;;6.91;54.19;101779.31;5034476;28;20419;-68
2023/04/27 08:52:02;;;;;;;8.70;3.75;;;;;;;6.97;53.39;101780.09;5033664;28;20041;-68
2023/04/27 08:54:28;;;;;;;9.90;3.20;;;;;;;7.05;52.88;101785.25;5016801;28;20036;-67
2023/04/27 08:56:53;;;;;;;6.28;3.42;;;;;;;7.20;52.43;101783.28;5015259;28;20470;-67
2023/04/27 08:59:18;;;;;;;10.57;3.20;;;;;;;7.52;51.36;101780.16;5025801;28;20045;-68
2023/04/27 09:01:48;;;;;;;9.05;2.88;;;;;;;7.84;50.63;101781.34;5034564;28;20029;-67
2023/04/27 09:04:14;;;;;;;5.28;2.40;;;;;;;8.26;49.58;101774.41;5031397;28;20341;-68
2023/04/27 09:06:40;;;;;;;10.05;3.03;;;;;;;8.02;49.79;101765.19;5033733;28;20113;-67
2023/04/27 09:09:08;;;;;;;6.80;2.70;;;;;;;7.96;49.92;101772.34;5033934;28;20048;-67
2023/04/27 09:11:35;;;;;;;12.05;3.20;;;;;;;7.71;50.65;101781.53;5037162;28;20029;-67
2023/04/27 09:14:23;;;;;;;9.63;3.50;;;;;;;7.96;50.06;101774.97;5041844;28;20105;-67
2023/04/27 09:16:56;;;;;;;10.52;3.47;;;;;;;8.22;49.13;101772.75;5034067;28;20111;-67
2023/04/27 09:19:29;;;;;;;7.57;3.08;;;;;;;8.73;48.42;101773.47;5035017;28;20033;-68
2023/04/27 09:22:08;;;;;;;8.40;3.25;;;;;;;8.69;48.17;101777.09;5032663;28;20032;-67
2023/04/27 09:24:33;;;;;;;12.07;4.30;;;;;;;8.32;48.24;101777.81;5032554;28;20029;-67
2023/04/27 09:26:59;;;;;;;9.15;2.88;;;;;;;7.98;47.92;101773.22;5034631;28;20441;-67
2023/04/27 09:29:51;;;;;;;7.57;3.15;;;;;;;7.88;48.62;101770.75;5032651;28;20390;-67
2023/04/27 09:32:17;;;;;;;;;;;;;;;7.72;48.97;101771.91;5032349;28;20115;-65
2023/04/27 09:34:42;;;;;;;9.02;3.28;;;;;;;7.67;50.47;101781.66;5031600;28;20008;-67
2023/04/27 09:37:09;;;;;;;15.80;4.65;;;;;;;7.51;51.22;101774.00;5033743;28;20438;-67
2023/04/27 09:39:35;;;;;;;11.52;3.90;;;;;;;7.32;52.16;101772.56;5033510;28;20046;-67
2023/04/27 09:42:00;;;;;;;8.82;3.00;;;;;;;7.67;52.73;101768.50;5042212;28;20311;-66
2023/04/27 09:44:27;;;;;;;9.27;3.13;;;;;;;7.72;52.77;101762.25;5035557;28;20033;-66
2023/04/27 09:46:54;;;;;;;9.95;3.13;;;;;;;7.71;53.94;101764.91;5031930;28;20033;-68
2023/04/27 09:49:20;;;;;;;10.35;3.75;;;;;;;8.09;53.39;101752.78;5014090;28;20390;-67
2023/04/27 09:51:46;;;;;;;6.35;3.33;;;;;;;7.99;51.18;101749.47;5032501;28;20087;-70
2023/04/27 09:54:12;;;;;;;8.75;3.03;;;;;;;7.85;50.88;101751.50;5034536;28;20041;-70
2023/04/27 09:57:03;;;;;;;13.15;3.47;;;;;;;8.05;50.72;101748.50;5013762;28;20026;-69
2023/04/27 09:59:39;;;;;;;6.72;3.50;;;;;;;8.39;50.21;101747.81;5029659;28;20032;-69
2023/04/27 10:02:05;;;;;;;7.88;3.17;;;;;;;8.74;48.46;101746.22;5035185;28;20034;-69
2023/04/27 10:04:46;;;;;;;9.13;3.72;;;;;;;8.47;49.12;101745.03;5027954;28;20088;-68
2023/04/27 10:07:13;;;;;;;10.95;4.03;;;;;;;8.76;48.26;101742.66;5030935;28;20041;-66
2023/04/27 10:09:40;;;;;;;6.65;3.15;;;;;;;9.02;48.50;101742.97;5032937;28;20048;-67
2023/04/27 10:12:33;;;;;;;7.30;3.00;;;;;;;8.62;47.69;101744.72;5032807;28;20033;-67
2023/04/27 10:14:59;;;;;;;6.00;3.70;;;;;;;9.14;46.21;101740.06;5014533;28;20049;-67
2023/04/27 10:17:32;;;;;;;11.07;3.10;;;;;;;10.00;45.08;101729.91;5029150;28;20049;-67
2023/04/27 10:20:08;;;;;;;6.85;2.60;;;;;;;10.01;43.51;101736.91;5028405;28;20033;-67
2023/04/27 10:22:48;;;;;;;12.77;4.05;;;;;;;9.65;44.64;101739.63;5019424;28;20034;-66
2023/04/27 10:25:40;;;;;;;4.78;2.67;;;;;;;8.95;44.08;101737.81;5013138;28;20025;-66
2023/04/27 10:28:08;;;;;;;13.13;2.60;;;;;;;9.03;45.33;101744.72;5028384;28;20044;-66
2023/04/27 10:30:36;;;;;;;5.68;2.90;;;;;;;8.53;45.22;101740.50;5009438;28;20029;-67
2023/04/27 10:33:06;;;;;;;8.27;2.60;;;;;;;8.67;45.42;101737.59;5029924;28;20422;-66
2023/04/27 10:35:55;;;;;;;7.82;2.80;;;;;;;8.86;44.42;101732.78;5030598;28;20026;-66
2023/04/27 10:38:26;;;;;;;4.57;2.40;;;;;;;9.57;42.71;101740.75;4994664;28;20183;-67
2023/04/27 10:41:03;;;;;;;7.38;2.53;;;;;;;9.46;41.91;101733.09;5028062;28;20044;-66
2023/04/27 10:43:31;;;;;;;3.08;1.95;;;;;;;9.02;41.27;101732.41;5028491;28;20041;-66
2023/04/27 10:46:25;;;;;;;10.50;2.63;;;;;;;9.86;40.98;101732.94;5024478;28;20017;-63
2023/04/27 10:48:51;;;;;;;3.88;1.67;;;;;;;10.19;38.07;101735.53;5011646;28;20060;-67
2023/04/27 10:51:16;;;;;;;4.25;2.13;;;;;;;11.08;37.43;101725.84;5025465;28;20057;-66
2023/04/27 10:53:42;;;;;;;7.47;1.90;;;;;;;11.24;35.88;101726.22;5027546;28;20140;-70
2023/04/27 10:56:09;;;;;;;3.60;1.88;;;;;;;12.00;33.47;101721.88;5010450;28;20416;-67
2023/04/27 10:58:36;;;;;;;4.18;1.35;;;;;;;11.57;33.15;101719.81;5029346;28;20029;-62
2023/04/27 11:01:02;;;;;;;9.35;1.80;;;;;;;12.28;30.85;101717.31;5026837;28;20426;-64
2023/04/27 11:03:28;;;;;;;7.15;1.90;;;;;;;12.16;31.79;101717.75;5027435;28;20025;-64
2023/04/27 11:06:04;;;;;;;3.38;1.48;;;;;;;11.84;33.69;101721.56;5009798;28;20029;-64
2023/04/27 11:08:31;;;;;;;6.25;1.27;;;;;;;13.87;30.64;101712.69;5011468;28;20138;-65
2023/04/27 11:10:56;;;;;;;3.90;1.60;;;;;;;13.60;30.84;101712.97;5029825;28;20033;-65
2023/04/27 11:13:24;;;;;;;9.20;1.77;;;;;;;12.00;33.14;101705.97;5030896;28;20438;-66
2023/04/27 11:15:54;;;;;;;3.38;1.10;;;;;;;11.23;34.21;101727.13;5032557;28;20494;-63
2023/04/27 11:18:21;;;;;;;4.22;1.63;;;;;;;10.79;36.28;101730.31;5029986;28;20469;-64
2023/04/27 11:20:48;;;;;;;3.47;1.35;;;;;;;10.83;34.97;101730.13;5011373;28;20068;-65
2023/04/27 11:23:27;;;;;;;6.20;2.47;;;;;;;10.20;37.34;101723.19;5014358;28;20029;-63
2023/04/27 11:25:54;;;;;;;5.75;1.58;;;;;;;10.35;37.75;101736.00;5031646;28;20029;-64
2023/04/27 11:28:20;;;;;;;8.32;2.03;;;;;;;10.36;39.12;101736.88;5033313;28;20044;-63
2023/04/27 11:30:48;;;;;;;6.22;1.85;;;;;;;10.35;39.00;101730.72;5029799;28;20017;-62